Time;durP1;ratioP1;P1;durP2;ratioP2;P2;SDS_P1;SDS_P2;PMS_P1;PMS_P2;Temp;Humidity;BMP_temperature;BMP_pressure;BME280_temperature;BME280_humidity;BME280_pressure;Samples;Min_cycle;Max_cycle;Signal;HPM_P1;HPM_P2
2021/08/02 00:00:47;;;;;;;4.75;3.25;;;;;;;;;;3585221;40;20436;-59
2021/08/02 00:03:21;;;;;;;5.43;4.50;;;;;;;;;;3585786;40;20053;-59
2021/08/02 00:05:52;;;;;;;5.43;4.07;;;;;;;;;;3586483;40;20033;-59
2021/08/02 00:08:20;;;;;;;;;;;;;;;;;;3587018;40;20040;-59
2021/08/02 00:10:48;;;;;;;3.92;3.53;;;;;;;;;;3585735;40;19970;-59
2021/08/02 00:13:20;;;;;;;4.65;4.25;;;;;;;;;;3586299;40;20051;-59
2021/08/02 00:15:47;;;;;;;5.95;4.03;;;;;;;;;;3586200;40;20319;-59
2021/08/02 00:18:13;;;;;;;4.90;4.50;;;;;;;;;;3585677;40;20084;-59
2021/08/02 00:20:39;;;;;;;5.25;4.75;;;;;;;;;;3584724;40;20041;-59
2021/08/02 00:23:08;;;;;;;6.05;4.88;;;;;;;;;;3586238;40;20032;-59
2021/08/02 00:25:34;;;;;;;4.00;3.63;;;;;;;;;;3586107;40;20028;-59
2021/08/02 00:28:01;;;;;;;5.00;3.80;;;;;;;;;;3584807;40;20033;-59
2021/08/02 00:30:27;;;;;;;4.00;3.58;;;;;;;;;;3584683;40;20479;-59
2021/08/02 00:32:53;;;;;;;4.53;3.85;;;;;;;;;;3586186;40;20039;-59
2021/08/02 00:35:19;;;;;;;4.35;3.95;;;;;;;;;;3586620;40;20039;-59
2021/08/02 00:38:02;;;;;;;6.47;4.00;;;;;;;;;;3586063;40;20029;-59
2021/08/02 00:40:39;;;;;;;4.00;3.13;;;;;;;;;;3585185;40;20036;-59
2021/08/02 00:43:32;;;;;;;4.07;3.33;;;;;;;;;;3586716;40;20102;-59
2021/08/02 00:45:59;;;;;;;3.75;3.05;;;;;;;;;;3587898;40;20040;-59
2021/08/02 00:48:31;;;;;;;4.88;4.47;;;;;;;;;;3585893;40;20146;-59
2021/08/02 00:51:04;;;;;;;4.50;3.55;;;;;;;;;;3585872;40;20067;-59
2021/08/02 00:53:30;;;;;;;4.20;3.80;;;;;;;;;;3586164;40;20351;-59
2021/08/02 00:56:02;;;;;;;4.60;4.20;;;;;;;;;;3586758;40;20040;-59
2021/08/02 00:58:30;;;;;;;4.07;3.67;;;;;;;;;;3587097;40;20125;-59
2021/08/02 01:00:56;;;;;;;3.08;2.75;;;;;;;;;;3587071;40;20122;-59
2021/08/02 01:03:22;;;;;;;3.80;3.33;;;;;;;;;;3585929;40;20028;-59
2021/08/02 01:05:52;;;;;;;5.75;5.15;;;;;;;;;;3587404;40;20049;-59
2021/08/02 01:08:30;;;;;;;4.45;3.33;;;;;;;;;;3586673;40;20315;-59
2021/08/02 01:11:06;;;;;;;4.13;3.72;;;;;;;;;;3587152;40;20032;-59
2021/08/02 01:13:34;;;;;;;6.25;5.35;;;;;;;;;;3587100;40;20041;-59
2021/08/02 01:16:02;;;;;;;5.13;4.45;;;;;;;;;;3586420;40;20032;-59
2021/08/02 01:18:30;;;;;;;7.45;6.78;;;;;;;;;;3586857;40;20403;-59
2021/08/02 01:21:01;;;;;;;4.38;3.97;;;;;;;;;;3587475;40;20051;-59
2021/08/02 01:23:27;;;;;;;;;;;;;;;;;;3587453;40;20028;-59
2021/08/02 01:25:53;;;;;;;4.70;4.03;;;;;;;;;;3587363;40;19940;-59
2021/08/02 01:28:19;;;;;;;5.88;5.38;;;;;;;;;;3587306;40;20044;-59
2021/08/02 01:30:45;;;;;;;7.82;7.22;;;;;;;;;;3586615;40;20052;-59
2021/08/02 01:33:12;;;;;;;6.45;5.95;;;;;;;;;;3586841;40;20025;-59
2021/08/02 01:35:38;;;;;;;5.05;4.60;;;;;;;;;;3586763;40;20048;-59
2021/08/02 01:38:04;;;;;;;5.47;5.03;;;;;;;;;;3585059;40;20064;-59
2021/08/02 01:40:30;;;;;;;4.45;3.55;;;;;;;;;;3587032;40;20118;-59
2021/08/02 01:43:03;;;;;;;4.35;3.95;;;;;;;;;;3587115;40;20032;-59
2021/08/02 01:45:29;;;;;;;5.78;5.30;;;;;;;;;;3586689;40;20036;-59
2021/08/02 01:48:09;;;;;;;5.07;4.57;;;;;;;;;;3586797;40;20040;-59
2021/08/02 01:50:53;;;;;;;5.20;3.13;;;;;;;;;;3586793;40;20040;-59
2021/08/02 01:54:02;;;;;;;3.95;3.30;;;;;;;;;;3587755;40;20072;-59
2021/08/02 01:56:35;;;;;;;4.28;3.80;;;;;;;;;;3577076;40;20088;-59
2021/08/02 01:59:13;;;;;;;5.25;3.00;;;;;;;;;;3585885;40;20036;-59
2021/08/02 02:02:12;;;;;;;4.75;4.07;;;;;;;;;;3586824;40;20092;-59
2021/08/02 02:05:26;;;;;;;4.43;4.03;;;;;;;;;;3583529;40;20052;-59
2021/08/02 02:08:08;;;;;;;3.83;3.28;;;;;;;;;;3582357;40;20044;-59
2021/08/02 02:10:38;;;;;;;4.07;3.65;;;;;;;;;;3586733;40;20045;-59
2021/08/02 02:13:12;;;;;;;5.37;3.73;;;;;;;;;;3586932;40;20052;-60
2021/08/02 02:15:38;;;;;;;7.28;3.47;;;;;;;;;;3587110;40;20086;-60
2021/08/02 02:18:04;;;;;;;4.53;4.10;;;;;;;;;;3587056;40;20722;-60
2021/08/02 02:20:32;;;;;;;4.63;3.85;;;;;;;;;;3587046;40;20029;-60
2021/08/02 02:22:58;;;;;;;4.25;3.55;;;;;;;;;;3586686;40;20134;-61
2021/08/02 02:25:23;;;;;;;4.35;3.90;;;;;;;;;;3587089;40;20491;-60
2021/08/02 02:27:49;;;;;;;4.57;4.18;;;;;;;;;;3585725;40;20029;-61
2021/08/02 02:30:15;;;;;;;4.60;3.10;;;;;;;;;;3586939;40;20025;-60
2021/08/02 02:32:43;;;;;;;4.82;3.67;;;;;;;;;;3586165;40;20043;-60
2021/08/02 02:35:09;;;;;;;3.97;3.47;;;;;;;;;;3585094;40;20283;-60
2021/08/02 02:37:35;;;;;;;5.70;4.10;;;;;;;;;;3587035;40;20029;-60
2021/08/02 02:40:03;;;;;;;3.38;3.05;;;;;;;;;;3586713;40;20412;-60
2021/08/02 02:42:30;;;;;;;5.70;3.67;;;;;;;;;;3585546;40;20076;-60
2021/08/02 02:44:56;;;;;;;5.28;4.07;;;;;;;;;;3586219;40;20032;-60
2021/08/02 02:47:23;;;;;;;4.32;3.70;;;;;;;;;;3586187;40;20557;-61
2021/08/02 02:49:50;;;;;;;4.10;3.40;;;;;;;;;;3586204;40;20063;-60
2021/08/02 02:52:15;;;;;;;3.80;3.35;;;;;;;;;;3586839;40;20435;-60
2021/08/02 02:54:47;;;;;;;6.00;5.50;;;;;;;;;;3586881;40;20141;-60
2021/08/02 02:57:12;;;;;;;5.20;4.63;;;;;;;;;;3586085;40;20311;-60
2021/08/02 02:59:38;;;;;;;7.07;6.35;;;;;;;;;;3585542;40;20129;-61
2021/08/02 03:02:04;;;;;;;5.10;3.90;;;;;;;;;;3586097;40;20083;-60
2021/08/02 03:04:33;;;;;;;3.83;3.42;;;;;;;;;;3586392;40;20064;-60
2021/08/02 03:07:00;;;;;;;4.82;4.35;;;;;;;;;;3585612;40;20109;-60
2021/08/02 03:09:30;;;;;;;6.00;5.53;;;;;;;;;;3584966;40;20025;-60
2021/08/02 03:11:56;;;;;;;4.40;4.00;;;;;;;;;;3593633;40;20052;-60
2021/08/02 03:14:21;;;;;;;4.50;3.97;;;;;;;;;;3585319;40;20028;-60
2021/08/02 03:16:47;;;;;;;6.88;4.15;;;;;;;;;;3586868;40;20032;-60
2021/08/02 03:19:12;;;;;;;5.65;5.15;;;;;;;;;;3586114;40;20040;-60
2021/08/02 03:21:38;;;;;;;4.30;3.72;;;;;;;;;;3584238;40;20036;-60
2021/08/02 03:24:15;;;;;;;4.57;3.95;;;;;;;;;;3584974;40;20375;-60
2021/08/02 03:26:52;;;;;;;7.88;6.15;;;;;;;;;;3586459;40;20406;-60
2021/08/02 03:29:32;;;;;;;6.68;4.10;;;;;;;;;;3586566;40;20048;-60
2021/08/02 03:32:02;;;;;;;4.90;4.43;;;;;;;;;;3585941;40;20257;-60
2021/08/02 03:34:32;;;;;;;4.45;3.33;;;;;;;;;;3582230;40;20066;-60
2021/08/02 03:36:59;;;;;;;5.85;3.88;;;;;;;;;;3586505;40;20086;-60
2021/08/02 03:39:25;;;;;;;6.13;3.72;;;;;;;;;;3584838;40;20036;-60
2021/08/02 03:41:52;;;;;;;4.45;3.80;;;;;;;;;;3585282;40;20059;-60
2021/08/02 03:44:18;;;;;;;5.82;4.63;;;;;;;;;;3585913;40;20080;-60
2021/08/02 03:46:44;;;;;;;5.30;4.15;;;;;;;;;;3585976;40;20117;-60
2021/08/02 03:49:10;;;;;;;5.63;4.22;;;;;;;;;;3586768;40;20040;-60
2021/08/02 03:51:45;;;;;;;5.03;4.55;;;;;;;;;;3586392;40;20052;-60
2021/08/02 03:54:11;;;;;;;4.85;3.20;;;;;;;;;;3586730;40;20428;-60
2021/08/02 03:56:37;;;;;;;5.55;4.95;;;;;;;;;;3582628;40;20046;-60
2021/08/02 03:59:03;;;;;;;8.90;8.10;;;;;;;;;;3586505;40;20036;-60
2021/08/02 04:01:28;;;;;;;6.20;5.70;;;;;;;;;;3585947;40;20039;-60
2021/08/02 04:03:54;;;;;;;6.60;6.00;;;;;;;;;;3585809;40;20048;-60
2021/08/02 04:06:19;;;;;;;6.05;5.55;;;;;;;;;;3586392;40;20035;-60
2021/08/02 04:08:44;;;;;;;3.90;3.47;;;;;;;;;;3586235;40;20118;-60
2021/08/02 04:11:10;;;;;;;6.82;6.30;;;;;;;;;;3586300;40;20033;-60
2021/08/02 04:13:35;;;;;;;7.72;7.18;;;;;;;;;;3585198;40;20304;-60
2021/08/02 04:16:00;;;;;;;7.07;6.45;;;;;;;;;;3586096;40;20381;-60
2021/08/02 04:18:26;;;;;;;10.70;9.90;;;;;;;;;;3586068;40;20036;-60
2021/08/02 04:20:54;;;;;;;7.50;6.85;;;;;;;;;;3585437;40;20037;-60
2021/08/02 04:23:20;;;;;;;10.45;9.75;;;;;;;;;;3584647;40;20299;-60
2021/08/02 04:25:45;;;;;;;5.90;5.40;;;;;;;;;;3586325;40;20083;-60
2021/08/02 04:28:11;;;;;;;6.30;5.80;;;;;;;;;;3586189;40;20049;-60
2021/08/02 04:30:36;;;;;;;10.30;8.85;;;;;;;;;;3585224;40;20059;-60
2021/08/02 04:33:01;;;;;;;5.68;5.15;;;;;;;;;;3585084;40;20079;-59
2021/08/02 04:35:27;;;;;;;6.38;5.78;;;;;;;;;;3585717;40;20376;-59
2021/08/02 04:37:52;;;;;;;11.50;10.57;;;;;;;;;;3585927;40;20040;-59
2021/08/02 04:40:18;;;;;;;5.03;4.55;;;;;;;;;;3586463;40;20565;-60
2021/08/02 04:42:43;;;;;;;5.00;4.60;;;;;;;;;;3585702;40;20032;-60
2021/08/02 04:45:09;;;;;;;8.57;7.90;;;;;;;;;;3585947;40;20081;-60
2021/08/02 04:47:35;;;;;;;8.10;7.40;;;;;;;;;;3585555;40;20044;-60
2021/08/02 04:50:00;;;;;;;7.35;6.80;;;;;;;;;;3585575;40;20058;-59
2021/08/02 04:52:26;;;;;;;9.88;9.18;;;;;;;;;;3583104;40;20118;-59
2021/08/02 04:54:51;;;;;;;10.95;9.95;;;;;;;;;;3585639;40;20036;-60
2021/08/02 04:57:16;;;;;;;10.10;9.40;;;;;;;;;;3585629;40;20122;-60
2021/08/02 04:59:42;;;;;;;11.25;10.35;;;;;;;;;;3586123;40;20040;-59
2021/08/02 05:02:09;;;;;;;13.90;12.90;;;;;;;;;;3585738;40;20129;-60
2021/08/02 05:04:34;;;;;;;10.10;9.30;;;;;;;;;;3585611;40;20029;-60
2021/08/02 05:07:00;;;;;;;10.52;9.75;;;;;;;;;;3584745;40;20055;-60
2021/08/02 05:09:25;;;;;;;13.63;12.73;;;;;;;;;;3584100;40;20035;-60
2021/08/02 05:11:51;;;;;;;10.98;10.20;;;;;;;;;;3585697;40;20045;-60
2021/08/02 05:14:17;;;;;;;11.60;10.73;;;;;;;;;;3585694;40;20144;-59
2021/08/02 05:16:44;;;;;;;11.75;10.95;;;;;;;;;;3585072;40;20052;-60
2021/08/02 05:19:10;;;;;;;12.82;11.63;;;;;;;;;;3585921;40;20053;-60
2021/08/02 05:21:35;;;;;;;12.23;11.43;;;;;;;;;;3584666;40;20033;-60
2021/08/02 05:24:01;;;;;;;8.13;7.35;;;;;;;;;;3584381;40;20353;-60
2021/08/02 05:26:26;;;;;;;10.82;10.05;;;;;;;;;;3585669;40;20049;-60
2021/08/02 05:28:51;;;;;;;10.80;10.00;;;;;;;;;;3584376;40;20109;-60
2021/08/02 05:31:17;;;;;;;10.50;9.80;;;;;;;;;;3587365;40;20048;-61
2021/08/02 05:33:42;;;;;;;9.25;8.45;;;;;;;;;;3586218;40;20312;-60
2021/08/02 05:36:08;;;;;;;8.70;8.02;;;;;;;;;;3586395;40;20093;-60
2021/08/02 05:38:33;;;;;;;7.18;3.88;;;;;;;;;;3586802;40;20044;-61
2021/08/02 05:40:59;;;;;;;8.80;8.00;;;;;;;;;;3586525;40;20032;-61
2021/08/02 05:43:25;;;;;;;5.10;4.60;;;;;;;;;;3587154;40;20036;-60
2021/08/02 05:45:51;;;;;;;4.55;3.95;;;;;;;;;;3586868;40;20044;-61
2021/08/02 05:48:16;;;;;;;10.18;9.38;;;;;;;;;;3587256;40;20121;-61
2021/08/02 05:50:42;;;;;;;9.90;9.10;;;;;;;;;;3583055;40;20051;-61
2021/08/02 05:53:07;;;;;;;5.95;4.28;;;;;;;;;;3587349;40;20082;-61
2021/08/02 05:55:32;;;;;;;4.72;3.88;;;;;;;;;;3586769;40;20365;-61
2021/08/02 05:57:58;;;;;;;6.00;5.50;;;;;;;;;;3585336;40;20040;-61
2021/08/02 06:00:24;;;;;;;6.50;5.05;;;;;;;;;;3587047;40;20257;-60
2021/08/02 06:02:49;;;;;;;8.75;5.03;;;;;;;;;;3586500;40;20121;-60
2021/08/02 06:05:14;;;;;;;6.55;5.97;;;;;;;;;;3586127;40;20041;-60
2021/08/02 06:07:42;;;;;;;5.18;4.20;;;;;;;;;;3586145;40;20592;-60
2021/08/02 06:10:09;;;;;;;6.47;5.88;;;;;;;;;;3586293;40;20036;-60
2021/08/02 06:12:34;;;;;;;3.33;3.00;;;;;;;;;;3586721;40;20041;-60
2021/08/02 06:15:00;;;;;;;4.60;2.63;;;;;;;;;;3585130;40;20036;-60
2021/08/02 06:17:25;;;;;;;5.00;2.97;;;;;;;;;;3586725;40;20257;-60
2021/08/02 06:19:51;;;;;;;4.85;3.47;;;;;;;;;;3587198;40;20048;-60
2021/08/02 06:22:16;;;;;;;3.90;2.92;;;;;;;;;;3586885;40;20023;-60
2021/08/02 06:24:42;;;;;;;5.90;3.20;;;;;;;;;;3585634;40;20359;-60
2021/08/02 06:27:08;;;;;;;4.15;3.38;;;;;;;;;;3586297;40;20043;-61
2021/08/02 06:29:33;;;;;;;4.57;4.18;;;;;;;;;;3585847;40;20036;-60
2021/08/02 06:31:59;;;;;;;4.30;2.20;;;;;;;;;;3585774;40;20279;-60
2021/08/02 06:34:24;;;;;;;7.38;2.80;;;;;;;;;;3585785;40;20044;-60
2021/08/02 06:36:49;;;;;;;5.28;2.38;;;;;;;;;;3586559;40;20028;-60
2021/08/02 06:39:15;;;;;;;3.95;2.28;;;;;;;;;;3587057;40;20119;-60
2021/08/02 06:41:40;;;;;;;4.55;2.67;;;;;;;;;;3586931;40;20154;-60
2021/08/02 06:44:06;;;;;;;4.72;2.13;;;;;;;;;;3585792;40;20039;-60
2021/08/02 06:46:31;;;;;;;3.53;1.98;;;;;;;;;;3586497;40;20033;-60
2021/08/02 06:48:56;;;;;;;4.13;2.17;;;;;;;;;;3586948;40;20055;-60
2021/08/02 06:51:22;;;;;;;4.30;2.15;;;;;;;;;;3586822;40;20033;-60
2021/08/02 06:53:47;;;;;;;3.92;2.20;;;;;;;;;;3585815;40;20041;-60
2021/08/02 06:56:13;;;;;;;4.78;2.85;;;;;;;;;;3586420;40;20036;-60
2021/08/02 06:58:38;;;;;;;4.43;2.03;;;;;;;;;;3587186;40;20053;-60
2021/08/02 07:01:03;;;;;;;3.90;2.40;;;;;;;;;;3585080;40;20040;-60
2021/08/02 07:03:29;;;;;;;3.47;1.90;;;;;;;;;;3586217;40;20078;-60
2021/08/02 07:05:54;;;;;;;4.18;2.20;;;;;;;;;;3587232;40;20024;-60
2021/08/02 07:08:20;;;;;;;3.88;1.70;;;;;;;;;;3586534;40;20276;-60
2021/08/02 07:10:45;;;;;;;4.07;2.00;;;;;;;;;;3582720;40;20118;-60
2021/08/02 07:13:11;;;;;;;3.35;2.03;;;;;;;;;;3584840;40;20356;-60
2021/08/02 07:15:36;;;;;;;4.75;2.08;;;;;;;;;;3585140;40;20049;-60
2021/08/02 07:18:02;;;;;;;4.20;2.88;;;;;;;;;;3585463;40;20364;-60
2021/08/02 07:20:27;;;;;;;4.03;2.10;;;;;;;;;;3586974;40;20082;-60
2021/08/02 07:22:52;;;;;;;3.70;2.33;;;;;;;;;;3586088;40;20126;-60
2021/08/02 07:25:18;;;;;;;4.55;3.13;;;;;;;;;;3586645;40;20032;-60
2021/08/02 07:27:44;;;;;;;4.15;2.35;;;;;;;;;;3585870;40;20032;-60
2021/08/02 07:30:10;;;;;;;7.10;2.13;;;;;;;;;;3586518;40;20114;-60
2021/08/02 07:32:36;;;;;;;3.40;2.17;;;;;;;;;;3586143;40;20039;-60
2021/08/02 07:35:01;;;;;;;5.25;2.88;;;;;;;;;;3585876;40;20046;-60
2021/08/02 07:37:27;;;;;;;4.25;2.72;;;;;;;;;;3584271;40;20427;-60
2021/08/02 07:39:52;;;;;;;4.35;2.50;;;;;;;;;;3586495;40;20436;-60
2021/08/02 07:42:18;;;;;;;3.78;2.25;;;;;;;;;;3586401;40;20035;-60
2021/08/02 07:44:43;;;;;;;7.78;2.45;;;;;;;;;;3586166;40;20029;-60
2021/08/02 07:47:08;;;;;;;4.28;3.10;;;;;;;;;;3586655;40;20040;-60
2021/08/02 07:49:34;;;;;;;4.53;2.85;;;;;;;;;;3586391;40;20076;-60
2021/08/02 07:51:59;;;;;;;3.20;2.03;;;;;;;;;;3586221;40;20060;-61
2021/08/02 07:54:25;;;;;;;4.65;2.45;;;;;;;;;;3585895;40;20854;-59
2021/08/02 07:56:50;;;;;;;4.85;2.30;;;;;;;;;;3583827;40;20044;-60
2021/08/02 07:59:16;;;;;;;3.78;1.80;;;;;;;;;;3585574;40;20080;-60
2021/08/02 08:01:41;;;;;;;2.45;1.65;;;;;;;;;;3586373;40;20313;-60
2021/08/02 08:04:06;;;;;;;6.32;2.83;;;;;;;;;;3585949;40;20040;-60
2021/08/02 08:06:32;;;;;;;7.22;2.17;;;;;;;;;;3586428;40;20029;-60
2021/08/02 08:08:57;;;;;;;3.88;2.25;;;;;;;;;;3586216;40;20037;-60
2021/08/02 08:11:23;;;;;;;4.68;1.70;;;;;;;;;;3585225;40;20314;-60
2021/08/02 08:13:48;;;;;;;3.90;2.30;;;;;;;;;;3586362;40;20063;-60
2021/08/02 08:16:13;;;;;;;3.25;1.70;;;;;;;;;;3585200;40;20047;-60
2021/08/02 08:18:39;;;;;;;3.17;1.98;;;;;;;;;;3585199;40;20032;-60
2021/08/02 08:21:04;;;;;;;4.82;1.98;;;;;;;;;;3585022;40;20364;-60
2021/08/02 08:23:32;;;;;;;2.95;1.80;;;;;;;;;;3586390;40;20025;-60
2021/08/02 08:26:01;;;;;;;3.42;2.22;;;;;;;;;;3585921;40;20035;-60
2021/08/02 08:28:27;;;;;;;2.83;1.52;;;;;;;;;;3584644;40;20112;-60
2021/08/02 08:30:52;;;;;;;3.50;2.00;;;;;;;;;;3583957;40;20040;-59
2021/08/02 08:33:18;;;;;;;3.42;1.85;;;;;;;;;;3583628;40;20069;-59
2021/08/02 08:35:43;;;;;;;3.17;1.88;;;;;;;;;;3581086;40;20052;-60
2021/08/02 08:38:09;;;;;;;5.20;2.10;;;;;;;;;;3584752;40;20672;-59
2021/08/02 08:40:36;;;;;;;3.75;1.52;;;;;;;;;;3585437;40;20112;-59
2021/08/02 08:43:02;;;;;;;3.72;1.85;;;;;;;;;;3586224;40;20035;-59
2021/08/02 08:45:28;;;;;;;4.07;1.92;;;;;;;;;;3585473;40;20036;-59
2021/08/02 08:47:56;;;;;;;4.93;1.85;;;;;;;;;;3583477;40;20307;-60
2021/08/02 08:50:22;;;;;;;3.90;1.95;;;;;;;;;;3585288;40;20024;-60
2021/08/02 08:52:50;;;;;;;5.60;2.88;;;;;;;;;;3584980;40;20158;-59
2021/08/02 08:55:15;;;;;;;5.75;1.90;;;;;;;;;;3584621;40;20429;-59
2021/08/02 08:57:42;;;;;;;5.07;2.17;;;;;;;;;;3584195;40;20052;-59
2021/08/02 09:00:28;;;;;;;4.03;2.60;;;;;;;;;;3582944;40;20043;-59
2021/08/02 09:02:55;;;;;;;3.55;2.30;;;;;;;;;;3584467;40;20037;-59
2021/08/02 09:05:21;;;;;;;5.28;2.38;;;;;;;;;;3587548;40;20197;-59
2021/08/02 09:07:47;;;;;;;4.53;2.08;;;;;;;;;;3587084;40;20122;-59
2021/08/02 09:10:18;;;;;;;4.25;2.00;;;;;;;;;;3584851;40;20316;-59
2021/08/02 09:13:00;;;;;;;5.07;2.13;;;;;;;;;;3586558;40;20044;-59
2021/08/02 09:15:33;;;;;;;4.32;2.17;;;;;;;;;;3587360;40;20130;-59
2021/08/02 09:18:00;;;;;;;4.85;2.38;;;;;;;;;;3584949;40;20404;-63
2021/08/02 09:20:26;;;;;;;3.72;2.25;;;;;;;;;;3586645;40;20121;-63
2021/08/02 09:22:53;;;;;;;4.43;2.10;;;;;;;;;;3586927;40;20033;-64
2021/08/02 09:25:21;;;;;;;6.38;2.40;;;;;;;;;;3585239;40;20044;-63
2021/08/02 09:27:49;;;;;;;3.03;1.80;;;;;;;;;;3585381;40;20047;-63
2021/08/02 09:30:25;;;;;;;11.80;2.40;;;;;;;;;;3587098;40;20057;-64
2021/08/02 09:32:56;;;;;;;3.65;1.77;;;;;;;;;;3586555;40;20044;-64
2021/08/02 09:35:32;;;;;;;4.25;2.42;;;;;;;;;;3584723;40;20088;-64
2021/08/02 09:38:07;;;;;;;3.92;2.17;;;;;;;;;;3585416;40;20141;-64
2021/08/02 09:40:41;;;;;;;8.75;2.17;;;;;;;;;;3585161;40;20076;-64
2021/08/02 09:43:10;;;;;;;4.18;2.30;;;;;;;;;;3586292;40;20045;-64
2021/08/02 09:45:45;;;;;;;3.10;2.00;;;;;;;;;;3587214;40;20059;-64
2021/08/02 09:48:13;;;;;;;3.80;2.40;;;;;;;;;;3587253;40;20048;-64
2021/08/02 09:50:39;;;;;;;5.63;2.20;;;;;;;;;;3587178;40;20063;-64
2021/08/02 09:53:04;;;;;;;5.32;2.22;;;;;;;;;;3586910;40;20036;-64
2021/08/02 09:55:30;;;;;;;6.20;1.95;;;;;;;;;;3586911;40;20068;-66
2021/08/02 09:57:56;;;;;;;4.93;2.50;;;;;;;;;;3587167;40;20032;-66
2021/08/02 10:00:21;;;;;;;4.47;2.45;;;;;;;;;;3587392;40;20040;-65
2021/08/02 10:02:48;;;;;;;4.35;2.47;;;;;;;;;;3587139;40;20037;-65
2021/08/02 10:05:15;;;;;;;4.32;1.88;;;;;;;;;;3587607;40;20134;-65
2021/08/02 10:07:45;;;;;;;3.20;2.00;;;;;;;;;;3587135;40;20052;-65
2021/08/02 10:10:12;;;;;;;4.05;2.22;;;;;;;;;;3585000;40;20482;-63
2021/08/02 10:12:43;;;;;;;3.92;2.53;;;;;;;;;;3585167;40;20058;-64
2021/08/02 10:15:14;;;;;;;3.03;1.98;;;;;;;;;;3586310;40;20065;-65
2021/08/02 10:17:45;;;;;;;3.55;1.80;;;;;;;;;;3587195;40;20265;-67
2021/08/02 10:20:32;;;;;;;8.15;2.65;;;;;;;;;;3584370;40;20048;-65
2021/08/02 10:22:59;;;;;;;5.22;2.72;;;;;;;;;;3582757;40;20134;-65
2021/08/02 10:25:35;;;;;;;4.88;2.08;;;;;;;;;;3586917;40;20148;-67
2021/08/02 10:28:08;;;;;;;3.45;1.95;;;;;;;;;;3586966;40;20429;-66
2021/08/02 10:30:33;;;;;;;3.10;2.05;;;;;;;;;;3585704;40;20101;-66
2021/08/02 10:32:59;;;;;;;3.80;2.03;;;;;;;;;;3586323;40;20257;-65
2021/08/02 10:35:35;;;;;;;5.13;1.75;;;;;;;;;;3586832;40;20056;-65
2021/08/02 10:38:03;;;;;;;3.47;2.45;;;;;;;;;;3586609;40;20044;-65
2021/08/02 10:40:29;;;;;;;3.55;1.98;;;;;;;;;;3586335;40;20040;-66
2021/08/02 10:42:55;;;;;;;3.53;2.70;;;;;;;;;;3587008;40;20097;-67
2021/08/02 10:45:33;;;;;;;6.03;2.47;;;;;;;;;;3585908;40;20096;-66
2021/08/02 10:48:00;;;;;;;14.98;3.13;;;;;;;;;;3586454;40;20115;-65
2021/08/02 10:50:27;;;;;;;2.95;1.52;;;;;;;;;;3586956;40;20468;-66
2021/08/02 10:52:54;;;;;;;3.92;2.00;;;;;;;;;;3586398;40;20057;-67
2021/08/02 10:55:20;;;;;;;5.80;2.13;;;;;;;;;;3586921;40;20098;-68
2021/08/02 10:58:28;;;;;;;2.65;1.42;;;;;;;;;;3581265;40;20033;-66
2021/08/02 11:00:57;;;;;;;4.50;1.80;;;;;;;;;;3583222;40;20139;-68
2021/08/02 11:03:34;;;;;;;3.08;1.77;;;;;;;;;;3584878;40;20133;-68
2021/08/02 11:06:14;;;;;;;2.55;1.52;;;;;;;;;;3583834;40;20052;-65
2021/08/02 11:08:56;;;;;;;2.88;1.73;;;;;;;;;;3585446;40;20045;-66
2021/08/02 11:11:29;;;;;;;5.65;2.60;;;;;;;;;;3585957;40;20032;-68
2021/08/02 11:14:04;;;;;;;4.00;2.05;;;;;;;;;;3584195;40;20053;-71
2021/08/02 11:16:29;;;;;;;9.13;6.03;;;;;;;;;;3583307;40;20404;-70
2021/08/02 11:18:55;;;;;;;8.23;4.85;;;;;;;;;;3586414;40;20025;-70
2021/08/02 11:21:22;;;;;;;8.98;8.18;;;;;;;;;;3584663;40;20354;-71
2021/08/02 11:23:48;;;;;;;4.22;3.83;;;;;;;;;;3585472;40;20041;-72
2021/08/02 11:26:13;;;;;;;11.63;10.77;;;;;;;;;;3585036;40;21432;-69
2021/08/02 11:28:43;;;;;;;9.52;8.82;;;;;;;;;;3584918;40;20524;-70
2021/08/02 11:31:10;;;;;;;11.52;10.23;;;;;;;;;;3585597;40;20051;-73
2021/08/02 11:33:41;;;;;;;7.97;7.38;;;;;;;;;;3585351;40;20364;-70
2021/08/02 11:36:17;;;;;;;9.63;8.73;;;;;;;;;;3586077;40;20354;-69
2021/08/02 11:38:44;;;;;;;10.27;9.48;;;;;;;;;;3584969;40;20329;-69
2021/08/02 11:41:10;;;;;;;6.53;6.03;;;;;;;;;;3585572;40;20044;-71
2021/08/02 11:43:44;;;;;;;9.13;5.88;;;;;;;;;;3585394;40;20061;-69
2021/08/02 11:46:12;;;;;;;7.82;5.93;;;;;;;;;;3586434;40;20047;-68
2021/08/02 11:48:42;;;;;;;8.50;7.80;;;;;;;;;;3584276;40;20041;-68
2021/08/02 11:51:08;;;;;;;6.47;5.53;;;;;;;;;;3585939;40;20036;-67
2021/08/02 11:53:34;;;;;;;6.10;5.45;;;;;;;;;;3585070;40;20040;-68
2021/08/02 11:56:00;;;;;;;9.18;8.57;;;;;;;;;;3585494;40;20136;-68
2021/08/02 11:58:39;;;;;;;8.38;7.70;;;;;;;;;;3585866;40;20233;-68
2021/08/02 12:01:04;;;;;;;6.63;5.57;;;;;;;;;;3585379;40;20029;-68
2021/08/02 12:03:30;;;;;;;4.38;3.97;;;;;;;;;;3585572;40;20276;-68
2021/08/02 12:06:08;;;;;;;4.85;3.60;;;;;;;;;;3585737;40;20035;-70
2021/08/02 12:08:35;;;;;;;7.20;6.60;;;;;;;;;;3584698;40;20036;-72
2021/08/02 12:11:04;;;;;;;4.45;2.83;;;;;;;;;;3585402;40;20021;-70
2021/08/02 12:13:41;;;;;;;5.97;5.47;;;;;;;;;;3585639;40;20072;-72
2021/08/02 12:16:07;;;;;;;4.75;4.35;;;;;;;;;;3586025;40;20045;-73
2021/08/02 12:18:32;;;;;;;6.07;5.43;;;;;;;;;;3585290;40;20064;-73
2021/08/02 12:21:13;;;;;;;4.60;3.58;;;;;;;;;;3585998;40;20122;-72
2021/08/02 12:23:40;;;;;;;3.92;2.92;;;;;;;;;;3586253;40;20054;-74
2021/08/02 12:26:20;;;;;;;5.25;2.13;;;;;;;;;;3584631;40;20355;-72
2021/08/02 12:28:46;;;;;;;;;;;;;;;;;;3586504;40;20069;-73
2021/08/02 12:31:17;;;;;;;3.00;2.13;;;;;;;;;;3585848;40;19951;-69
2021/08/02 12:33:45;;;;;;;9.13;1.70;;;;;;;;;;3586065;40;20056;-70
2021/08/02 12:36:11;;;;;;;2.67;1.20;;;;;;;;;;3586018;40;20226;-71
2021/08/02 12:38:41;;;;;;;5.15;1.33;;;;;;;;;;3585944;40;20044;-71
2021/08/02 12:41:08;;;;;;;;;;;;;;;;;;3585446;40;20568;-68
2021/08/02 12:43:33;;;;;;;2.88;1.50;;;;;;;;;;3586790;40;21087;-69
2021/08/02 12:45:59;;;;;;;2.55;1.30;;;;;;;;;;3585161;40;20068;-71
2021/08/02 12:48:25;;;;;;;7.40;2.10;;;;;;;;;;3586747;40;20285;-70
2021/08/02 12:50:50;;;;;;;4.35;2.20;;;;;;;;;;3587486;40;20036;-72
2021/08/02 12:53:16;;;;;;;2.90;1.48;;;;;;;;;;3586694;40;20048;-71
2021/08/02 12:55:41;;;;;;;6.32;1.67;;;;;;;;;;3585883;40;20142;-71
2021/08/02 12:58:06;;;;;;;3.20;1.80;;;;;;;;;;3587750;40;20094;-72
2021/08/02 13:00:32;;;;;;;2.72;1.60;;;;;;;;;;3587282;40;20039;-71
2021/08/02 13:02:57;;;;;;;2.63;1.60;;;;;;;;;;3585822;40;20089;-70
2021/08/02 13:05:22;;;;;;;2.97;1.65;;;;;;;;;;3587476;40;20033;-69
2021/08/02 13:07:48;;;;;;;2.60;1.40;;;;;;;;;;3587901;40;20029;-68
2021/08/02 13:10:13;;;;;;;3.33;1.80;;;;;;;;;;3586717;40;20486;-68
2021/08/02 13:12:39;;;;;;;2.85;1.75;;;;;;;;;;3586520;40;20068;-71
2021/08/02 13:15:04;;;;;;;3.10;1.77;;;;;;;;;;3587052;40;20034;-70
2021/08/02 13:17:30;;;;;;;4.55;1.80;;;;;;;;;;3586143;40;20032;-72
2021/08/02 13:19:57;;;;;;;5.40;2.10;;;;;;;;;;3586393;40;20029;-69
2021/08/02 13:22:28;;;;;;;2.80;1.77;;;;;;;;;;3587614;40;20068;-69
2021/08/02 13:27:37;;;;;;;2.85;1.80;;;;;;;;;;3587587;40;20047;-71
2021/08/02 13:30:03;;;;;;;2.97;2.10;;;;;;;;;;3586965;40;20404;-70
2021/08/02 13:32:29;;;;;;;4.70;2.33;;;;;;;;;;3586783;40;20033;-68
2021/08/02 13:34:54;;;;;;;3.20;2.05;;;;;;;;;;3587422;40;20035;-70
2021/08/02 13:37:19;;;;;;;2.65;1.92;;;;;;;;;;3587092;40;20249;-69
2021/08/02 13:39:45;;;;;;;3.25;2.78;;;;;;;;;;3585499;40;20032;-70
2021/08/02 13:42:11;;;;;;;3.22;2.17;;;;;;;;;;3586179;40;20056;-70
2021/08/02 13:44:37;;;;;;;4.75;2.20;;;;;;;;;;3587073;40;20283;-69
2021/08/02 13:47:05;;;;;;;3.22;2.42;;;;;;;;;;3587111;40;20052;-69
2021/08/02 13:49:34;;;;;;;3.20;2.10;;;;;;;;;;3585635;40;20084;-69
2021/08/02 13:52:00;;;;;;;3.67;2.20;;;;;;;;;;3587264;40;20056;-70
2021/08/02 13:54:25;;;;;;;3.88;2.75;;;;;;;;;;3586461;40;20052;-68
2021/08/02 13:56:50;;;;;;;5.28;2.45;;;;;;;;;;3582270;40;20134;-68
2021/08/02 13:59:16;;;;;;;3.58;2.17;;;;;;;;;;3585697;40;20068;-66
2021/08/02 14:01:42;;;;;;;3.80;2.65;;;;;;;;;;3586713;40;20041;-68
2021/08/02 14:04:08;;;;;;;3.78;2.75;;;;;;;;;;3586607;40;20069;-67
2021/08/02 14:06:34;;;;;;;3.83;2.30;;;;;;;;;;3584406;40;20280;-68
2021/08/02 14:09:00;;;;;;;4.38;2.60;;;;;;;;;;3593415;40;20032;-69
2021/08/02 14:11:26;;;;;;;4.47;1.77;;;;;;;;;;3586460;40;20032;-68
2021/08/02 14:13:58;;;;;;;2.90;1.45;;;;;;;;;;3586285;40;20275;-68
2021/08/02 14:16:30;;;;;;;2.30;1.35;;;;;;;;;;3585968;40;20033;-67
2021/08/02 14:19:19;;;;;;;3.15;1.80;;;;;;;;;;3586850;40;20098;-68
2021/08/02 14:21:46;;;;;;;2.70;1.80;;;;;;;;;;3586527;40;20464;-66
2021/08/02 14:24:12;;;;;;;3.30;1.70;;;;;;;;;;3586335;40;20539;-67
2021/08/02 14:26:39;;;;;;;3.60;2.28;;;;;;;;;;3585276;40;20442;-66
2021/08/02 14:29:05;;;;;;;3.20;2.03;;;;;;;;;;3586404;40;20036;-67
2021/08/02 14:31:31;;;;;;;3.22;2.38;;;;;;;;;;3585750;40;20040;-65
2021/08/02 14:33:57;;;;;;;3.55;2.88;;;;;;;;;;3586572;40;20053;-66
2021/08/02 14:36:22;;;;;;;4.63;2.30;;;;;;;;;;3586672;40;20036;-66
2021/08/02 14:38:51;;;;;;;2.80;2.00;;;;;;;;;;3584951;40;20058;-68
2021/08/02 14:41:24;;;;;;;3.35;2.10;;;;;;;;;;3586297;40;20340;-67
2021/08/02 14:43:50;;;;;;;4.50;2.20;;;;;;;;;;3586534;40;20041;-67
2021/08/02 14:46:20;;;;;;;2.60;1.80;;;;;;;;;;3587067;40;20028;-67
2021/08/02 14:48:50;;;;;;;2.55;1.80;;;;;;;;;;3586568;40;20048;-66
2021/08/02 14:51:32;;;;;;;4.25;2.40;;;;;;;;;;3585666;40;20048;-66